Time;durP1;ratioP1;P1;durP2;ratioP2;P2;SDS_P1;SDS_P2;PMS_P1;PMS_P2;Temp;Humidity;BMP_temperature;BMP_pressure;BME280_temperature;BME280_humidity;BME280_pressure;Samples;Min_cycle;Max_cycle;Signal;HPM_P1;HPM_P2
2021/01/19 00:08:33;;;;;;;15.60;6.80;;;;;;;1.99;89.13;101109.72;20988310;28;20508;-70
2021/01/19 00:18:34;;;;;;;17.02;7.85;;;;;;;2.11;87.32;101107.06;20988617;28;20078;-70
2021/01/19 00:28:35;;;;;;;14.60;6.75;;;;;;;2.02;88.01;101095.09;20989170;28;20051;-70
2021/01/19 00:38:36;;;;;;;14.23;7.53;;;;;;;2.02;87.84;101104.56;20986947;28;20097;-70
2021/01/19 00:48:37;;;;;;;13.10;6.05;;;;;;;1.95;88.42;101087.41;20990084;28;20052;-70
2021/01/19 00:58:38;;;;;;;14.45;6.53;;;;;;;1.97;88.19;101065.88;20987672;28;20571;-70
2021/01/19 01:08:39;;;;;;;16.25;7.15;;;;;;;2.03;87.64;101052.06;20985270;28;20041;-70
2021/01/19 01:18:40;;;;;;;14.38;7.03;;;;;;;2.08;86.18;101042.56;20990565;28;20086;-69
2021/01/19 01:28:41;;;;;;;15.38;6.18;;;;;;;2.12;85.34;101036.50;21013027;28;20105;-71
2021/01/19 01:38:42;;;;;;;12.95;5.25;;;;;;;2.08;85.56;101017.56;21011605;28;20041;-71
2021/01/19 01:48:46;;;;;;;13.40;5.65;;;;;;;2.06;84.91;100995.22;21012107;28;20098;-70
2021/01/19 01:58:47;;;;;;;11.70;5.07;;;;;;;2.17;83.30;100985.66;21010978;28;20072;-69
2021/01/19 02:09:03;;;;;;;10.95;4.57;;;;;;;2.11;84.11;100972.81;21010685;28;20102;-69
2021/01/19 02:19:28;;;;;;;9.30;4.32;;;;;;;2.14;83.33;100952.09;21010957;28;20637;-69
2021/01/19 02:30:04;;;;;;;9.25;4.80;;;;;;;2.13;83.67;100928.00;20990201;28;20059;-70
2021/01/19 02:40:07;;;;;;;12.80;4.13;;;;;;;2.14;83.45;100903.03;20995962;28;20053;-70
2021/01/19 02:50:09;;;;;;;10.00;3.90;;;;;;;2.07;82.99;100881.63;20996144;28;20053;-70
2021/01/19 03:00:20;;;;;;;10.38;4.10;;;;;;;2.04;82.72;100865.28;20994722;28;20059;-70
2021/01/19 03:10:21;;;;;;;11.32;3.80;;;;;;;1.96;83.55;100875.72;20995070;28;20730;-70
2021/01/19 03:20:25;;;;;;;9.50;3.85;;;;;;;2.09;81.79;100868.69;20993609;28;20456;-70
2021/01/19 03:30:26;;;;;;;9.98;3.58;;;;;;;2.01;81.97;100865.34;20991855;28;20087;-70
2021/01/19 03:40:26;;;;;;;13.00;3.58;;;;;;;1.92;81.51;100849.97;20991805;28;20048;-70
2021/01/19 03:50:28;;;;;;;7.10;3.55;;;;;;;1.68;82.35;100841.63;20991745;28;20055;-70
2021/01/19 04:00:31;;;;;;;6.97;3.38;;;;;;;1.65;82.38;100831.34;20989314;28;20459;-70
2021/01/19 04:10:32;;;;;;;7.68;3.47;;;;;;;1.76;81.63;100846.72;20980345;28;20049;-70
2021/01/19 04:20:32;;;;;;;8.88;3.38;;;;;;;1.73;82.85;100828.66;20989681;28;20067;-71
2021/01/19 04:30:33;;;;;;;8.00;3.00;;;;;;;1.69;82.02;100821.84;20988708;28;20060;-71
2021/01/19 04:40:35;;;;;;;8.75;3.50;;;;;;;1.62;81.95;100794.41;20988404;28;20045;-71
2021/01/19 04:50:37;;;;;;;10.55;2.80;;;;;;;1.53;81.74;100785.03;20988648;28;20103;-70
2021/01/19 05:00:38;;;;;;;6.93;2.88;;;;;;;1.45;81.67;100765.38;20986478;28;20051;-71
2021/01/19 05:10:39;;;;;;;7.68;2.40;;;;;;;1.38;81.74;100763.72;20987250;28;20385;-71
2021/01/19 05:20:47;;;;;;;5.93;2.33;;;;;;;1.39;81.55;100740.50;20987031;28;20056;-71
2021/01/19 05:30:52;;;;;;;7.82;2.60;;;;;;;1.33;81.36;100714.78;20985856;28;20049;-71
2021/01/19 05:40:52;;;;;;;12.07;3.17;;;;;;;1.39;82.31;100698.38;20988993;28;20040;-71
2021/01/19 05:50:55;;;;;;;12.40;3.17;;;;;;;1.33;83.36;100689.00;20987418;28;20063;-71
2021/01/19 06:01:01;;;;;;;9.80;3.40;;;;;;;1.27;82.64;100679.59;20984632;28;20040;-71
2021/01/19 06:11:08;;;;;;;7.15;3.20;;;;;;;1.34;83.55;100682.13;20995929;28;20044;-70
2021/01/19 06:21:09;;;;;;;7.50;3.03;;;;;;;1.24;83.11;100666.78;20998855;28;20044;-71
2021/01/19 06:31:13;;;;;;;7.07;3.63;;;;;;;1.24;83.10;100663.34;20998443;28;20048;-71
2021/01/19 06:41:18;;;;;;;8.33;2.90;;;;;;;1.34;82.55;100661.50;20998066;28;20122;-70
2021/01/19 06:51:20;;;;;;;8.15;2.78;;;;;;;1.39;82.78;100631.34;20997868;28;20098;-71
2021/01/19 07:01:25;;;;;;;6.40;2.60;;;;;;;1.34;82.62;100627.97;20995722;28;20131;-70
2021/01/19 07:11:35;;;;;;;5.72;3.22;;;;;;;1.45;81.40;100621.81;20990109;28;20045;-69
2021/01/19 07:22:03;;;;;;;11.00;3.55;;;;;;;1.46;81.20;100610.63;20995762;28;20048;-69
2021/01/19 07:32:14;;;;;;;9.90;3.38;;;;;;;1.53;81.48;100593.31;20994606;28;20488;-70
2021/01/19 07:42:17;;;;;;;7.18;2.22;;;;;;;1.57;80.98;100575.22;20989435;28;20503;-69
2021/01/19 07:52:18;;;;;;;7.85;2.28;;;;;;;1.60;82.51;100567.41;20990892;28;20102;-70
2021/01/19 08:02:22;;;;;;;6.05;2.30;;;;;;;1.91;79.21;100561.78;20990920;28;20045;-70
2021/01/19 08:12:34;;;;;;;;;;;;;;;1.89;79.89;100566.09;20990725;28;20056;-69
2021/01/19 08:22:35;;;;;;;7.03;2.90;;;;;;;1.92;79.22;100550.59;20988833;28;19920;-69
2021/01/19 08:32:38;;;;;;;9.23;2.35;;;;;;;2.02;77.92;100531.47;20987219;28;20503;-70
2021/01/19 08:42:40;;;;;;;4.90;2.05;;;;;;;2.02;78.41;100516.84;20988457;28;20068;-69
2021/01/19 08:52:41;;;;;;;6.85;2.58;;;;;;;2.08;78.03;100505.56;20987604;28;20052;-69
2021/01/19 09:02:42;;;;;;;7.25;2.33;;;;;;;2.27;76.73;100475.94;20969191;28;20050;-69
2021/01/19 09:12:43;;;;;;;9.18;2.42;;;;;;;2.33;76.50;100462.91;20990070;28;20408;-69
2021/01/19 09:22:44;;;;;;;10.30;2.33;;;;;;;2.44;75.16;100452.34;20986021;28;20083;-69
2021/01/19 09:32:46;;;;;;;5.63;1.90;;;;;;;2.55;75.44;100450.38;20985003;28;20056;-69
2021/01/19 09:42:47;;;;;;;10.27;2.60;;;;;;;2.49;75.05;100435.00;20994013;28;20052;-69
2021/01/19 09:52:48;;;;;;;11.00;3.10;;;;;;;2.64;76.02;100433.88;21001233;28;20143;-69
2021/01/19 10:02:49;;;;;;;8.45;1.95;;;;;;;2.75;74.88;100418.97;20993314;28;20044;-69
2021/01/19 10:13:02;;;;;;;7.72;2.10;;;;;;;2.95;74.82;100414.19;20995906;28;20163;-70
2021/01/19 10:23:05;;;;;;;14.98;3.08;;;;;;;2.95;74.09;100409.88;20997872;28;20045;-69
2021/01/19 10:33:06;;;;;;;7.43;2.25;;;;;;;3.14;73.76;100384.44;20994973;28;20048;-69
2021/01/19 10:43:11;;;;;;;10.30;2.15;;;;;;;3.04;73.58;100366.59;20995003;28;20040;-69
2021/01/19 10:53:12;;;;;;;6.17;2.03;;;;;;;3.13;73.22;100364.66;20993706;28;20042;-69
2021/01/19 11:03:12;;;;;;;6.63;2.30;;;;;;;3.10;72.55;100354.34;20993402;28;20044;-69
2021/01/19 11:13:14;;;;;;;9.20;2.97;;;;;;;3.28;74.15;100348.75;20992484;28;20044;-69
2021/01/19 11:23:14;;;;;;;6.80;2.60;;;;;;;3.08;76.90;100338.06;20991473;28;20086;-69
2021/01/19 11:33:16;;;;;;;9.48;3.35;;;;;;;3.06;79.69;100326.88;20990205;28;20049;-69
2021/01/19 11:43:17;;;;;;;11.15;3.25;;;;;;;3.03;79.10;100302.84;20989955;28;21034;-69
2021/01/19 11:53:18;;;;;;;9.95;3.28;;;;;;;3.32;80.43;100280.53;20985604;28;20045;-71
2021/01/19 12:03:19;;;;;;;14.38;4.20;;;;;;;3.12;83.29;100280.19;20986739;28;20514;-71
2021/01/19 12:13:20;;;;;;;10.98;3.63;;;;;;;3.05;87.39;100257.13;20987198;28;20102;-71
2021/01/19 12:23:23;;;;;;;12.50;3.67;;;;;;;2.88;90.58;100240.31;20984080;28;20057;-71
2021/01/19 12:33:23;;;;;;;8.85;4.05;;;;;;;2.84;92.10;100237.84;20985518;28;20099;-72
2021/01/19 12:43:25;;;;;;;8.70;3.75;;;;;;;2.90;93.17;100220.44;20987728;28;20036;-71
2021/01/19 12:53:27;;;;;;;9.05;3.95;;;;;;;2.68;94.21;100210.69;20984023;28;20051;-71
2021/01/19 13:03:28;;;;;;;9.98;4.43;;;;;;;2.84;94.47;100199.09;20980020;28;20385;-71
2021/01/19 13:13:29;;;;;;;13.88;4.95;;;;;;;2.64;97.74;100186.69;20982918;28;20048;-72
2021/01/19 13:23:30;;;;;;;11.68;4.82;;;;;;;2.45;100.00;100178.53;20983685;28;20044;-72
2021/01/19 13:33:31;;;;;;;10.95;3.63;;;;;;;2.42;100.00;100188.09;20983757;28;20510;-71
2021/01/19 13:43:33;;;;;;;13.35;4.00;;;;;;;2.43;100.00;100195.81;20982914;28;20051;-71
2021/01/19 13:53:39;;;;;;;9.63;4.70;;;;;;;2.42;100.00;100190.69;20982029;28;20508;-71
2021/01/19 14:03:40;;;;;;;10.82;4.32;;;;;;;2.48;100.00;100206.03;20980827;28;20063;-70
2021/01/19 14:13:41;;;;;;;10.68;4.82;;;;;;;2.45;100.00;100201.78;20980480;28;20072;-71
2021/01/19 14:23:43;;;;;;;10.82;4.68;;;;;;;2.45;100.00;100214.69;20981408;28;20393;-71
2021/01/19 14:33:44;;;;;;;11.27;4.32;;;;;;;2.58;100.00;100217.84;20992903;28;20048;-71
2021/01/19 14:43:45;;;;;;;11.30;4.65;;;;;;;2.58;100.00;100215.25;20994657;28;20053;-71
2021/01/19 14:53:47;;;;;;;11.98;4.28;;;;;;;2.82;99.50;100221.53;20994579;28;20110;-71
2021/01/19 15:03:48;;;;;;;14.00;5.25;;;;;;;2.88;99.64;100218.78;20992777;28;20110;-70
2021/01/19 15:13:49;;;;;;;10.50;3.88;;;;;;;2.80;100.00;100231.91;20992351;28;20040;-70
2021/01/19 15:23:50;;;;;;;9.95;4.22;;;;;;;2.81;100.00;100227.56;20989467;28;20049;-72
2021/01/19 15:33:51;;;;;;;11.57;4.70;;;;;;;2.66;100.00;100226.22;20988842;28;20056;-69
2021/01/19 15:43:52;;;;;;;9.57;3.67;;;;;;;2.76;100.00;100232.00;20990021;28;20400;-70
2021/01/19 15:53:54;;;;;;;7.22;3.08;;;;;;;2.63;100.00;100235.81;20989764;28;20102;-70
2021/01/19 16:03:55;;;;;;;8.63;3.50;;;;;;;2.52;100.00;100255.00;20988227;28;20049;-70
2021/01/19 16:13:56;;;;;;;25.05;7.38;;;;;;;2.44;100.00;100259.47;20987769;28;20098;-70
2021/01/19 16:23:58;;;;;;;8.13;3.50;;;;;;;2.35;100.00;100244.19;20988025;28;20045;-70
2021/01/19 16:33:59;;;;;;;8.23;3.65;;;;;;;2.38;100.00;100238.97;20985638;28;20630;-70
2021/01/19 16:44:00;;;;;;;8.48;3.42;;;;;;;2.54;100.00;100237.69;20986059;28;20496;-70
2021/01/19 16:54:02;;;;;;;8.85;3.55;;;;;;;2.52;100.00;100248.97;20985003;28;20756;-69
2021/01/19 17:04:03;;;;;;;7.65;3.17;;;;;;;2.50;100.00;100232.66;20982391;28;20044;-70
2021/01/19 17:14:04;;;;;;;9.77;4.10;;;;;;;2.55;99.16;100203.25;20982954;28;20044;-71
2021/01/19 17:24:06;;;;;;;6.57;3.25;;;;;;;2.52;97.13;100164.59;20983610;28;20090;-70
2021/01/19 17:34:08;;;;;;;9.23;3.80;;;;;;;2.63;94.53;100163.47;20981881;28;20037;-71
2021/01/19 17:44:09;;;;;;;6.78;3.03;;;;;;;2.36;94.51;100147.78;20982902;28;20440;-72
2021/01/19 17:54:10;;;;;;;6.03;2.83;;;;;;;2.18;94.67;100139.63;20978888;28;20094;-71
2021/01/19 18:04:13;;;;;;;7.28;3.25;;;;;;;2.06;94.25;100144.19;20984622;28;20076;-71
2021/01/19 18:14:18;;;;;;;7.60;3.25;;;;;;;1.85;94.53;100156.75;20996810;28;20083;-71
2021/01/19 18:24:19;;;;;;;11.45;4.78;;;;;;;1.69;94.53;100143.34;20996514;28;20099;-71
2021/01/19 18:34:23;;;;;;;10.38;4.95;;;;;;;1.64;94.93;100135.72;20994984;28;20142;-71
2021/01/19 18:44:24;;;;;;;11.27;5.15;;;;;;;1.55;93.32;100110.13;20994433;28;20040;-71
2021/01/19 18:54:26;;;;;;;9.15;4.15;;;;;;;1.47;93.71;100108.59;20992259;28;20044;-71
2021/01/19 19:04:27;;;;;;;8.00;4.25;;;;;;;1.43;92.50;100091.47;20990929;28;20040;-72
2021/01/19 19:14:28;;;;;;;6.72;3.53;;;;;;;1.45;90.75;100088.00;20991881;28;20045;-71
2021/01/19 19:24:29;;;;;;;9.77;3.78;;;;;;;1.36;91.13;100085.63;20992259;28;20071;-71
2021/01/19 19:34:30;;;;;;;9.32;3.75;;;;;;;1.40;89.33;100074.38;20989744;28;20044;-71
2021/01/19 19:44:34;;;;;;;10.88;4.80;;;;;;;1.48;87.54;100051.81;20987523;28;20048;-71
2021/01/19 19:54:35;;;;;;;7.13;3.63;;;;;;;1.63;85.63;100054.03;20988993;28;20416;-72
2021/01/19 20:04:36;;;;;;;7.80;3.33;;;;;;;1.76;83.59;100044.28;20987005;28;20040;-71
2021/01/19 20:14:38;;;;;;;6.85;3.30;;;;;;;1.87;82.30;100036.28;20993632;28;20036;-70
2021/01/19 20:24:40;;;;;;;8.82;3.65;;;;;;;1.81;82.97;100032.13;20984860;28;20452;-70
2021/01/19 20:34:42;;;;;;;13.75;6.25;;;;;;;1.80;82.37;100019.25;20983940;28;20052;-71
2021/01/19 20:44:44;;;;;;;8.82;4.45;;;;;;;2.04;80.60;100028.97;20983902;28;20041;-71
2021/01/19 20:54:44;;;;;;;8.75;4.65;;;;;;;1.76;82.17;100012.50;20983550;28;20040;-70
2021/01/19 21:04:45;;;;;;;8.90;3.60;;;;;;;1.80;81.38;100001.19;20980220;28;20047;-71
2021/01/19 21:14:47;;;;;;;15.25;5.70;;;;;;;1.88;80.43;100009.63;20985343;28;20044;-71
2021/01/19 21:24:48;;;;;;;8.07;4.00;;;;;;;1.79;80.53;100025.28;20983521;28;20094;-71
2021/01/19 21:34:49;;;;;;;9.90;4.32;;;;;;;1.56;82.08;100031.88;20983150;28;20036;-71
2021/01/19 21:44:50;;;;;;;9.13;4.00;;;;;;;1.52;81.06;100025.09;21002912;28;20480;-70
2021/01/19 21:54:51;;;;;;;8.05;3.83;;;;;;;1.48;81.93;100010.56;21000567;28;20679;-73
2021/01/19 22:04:52;;;;;;;8.57;4.22;;;;;;;1.51;82.06;100014.81;20994481;28;20531;-73
2021/01/19 22:15:12;;;;;;;7.15;3.30;;;;;;;1.55;80.94;99999.22;20982015;28;20049;-73
2021/01/19 22:25:13;;;;;;;8.98;4.35;;;;;;;1.53;80.28;100000.13;20996211;28;20040;-73
2021/01/19 22:35:13;;;;;;;8.80;3.80;;;;;;;1.25;81.95;100003.38;20995353;28;20099;-73
2021/01/19 22:45:15;;;;;;;10.73;4.93;;;;;;;1.02;83.81;100012.47;20992701;28;20040;-73
2021/01/19 22:55:16;;;;;;;12.70;6.18;;;;;;;0.83;84.41;99997.44;20993653;28;20040;-73
2021/01/19 23:05:17;;;;;;;11.18;5.90;;;;;;;0.61;86.37;99985.88;20981570;28;20619;-73
2021/01/19 23:15:18;;;;;;;18.65;8.90;;;;;;;0.24;89.20;99978.06;20989462;28;20412;-73
2021/01/19 23:25:20;;;;;;;10.73;5.15;;;;;;;-0.06;91.09;99966.63;20986512;28;20458;-73
2021/01/19 23:35:21;;;;;;;13.55;6.70;;;;;;;-0.24;93.63;99941.22;20977695;28;20064;-72
2021/01/19 23:45:22;;;;;;;13.95;6.38;;;;;;;-0.42;95.88;99928.69;20986082;28;20056;-73
2021/01/19 23:55:24;;;;;;;16.52;7.50;;;;;;;-0.49;96.50;99909.09;20984468;28;20040;-72
